Terminal Aerodrome Forecast
Issued by NWS Louisville, KY

Home | Current Version | Previous Version | Text Only | Print | Product List | Glossary On
Versions: 1 2 3 4 5 6 7 8 9 10 11 12 13 14 15 16
000
FTUS43 KLMK 312300
TAFLEX
TAF
KLEX 312329Z 0100/0124 36007KT P6SM FEW020 BKN150
     FM010500 04007KT P6SM BKN013 BKN120
     FM010900 04008KT 6SM BR VCSH BKN011 BKN120
     FM011300 05007KT 4SM -SHRA BR BKN009
     FM011800 04007KT P6SM BKN019=

USA.gov is the U.S. government's official web portal to all federal, state and local government web resources and services.